createdAt,value
2023-02-18T00:01:53.269Z,9.62
2023-02-18T00:04:55.198Z,9.68
2023-02-18T00:07:56.867Z,9.73
2023-02-18T00:10:58.422Z,9.71
2023-02-18T00:14:01.394Z,9.67
2023-02-18T00:17:02.968Z,9.69
2023-02-18T00:20:06.798Z,9.65
2023-02-18T00:23:08.506Z,9.63
2023-02-18T00:26:15.318Z,9.60
2023-02-18T00:29:16.957Z,9.58
2023-02-18T00:32:18.757Z,9.55
2023-02-18T00:35:20.202Z,9.48
2023-02-18T00:38:21.710Z,9.54
2023-02-18T00:41:24.805Z,9.59
2023-02-18T00:44:26.411Z,9.59
2023-02-18T00:47:27.957Z,9.68
2023-02-18T00:50:29.483Z,9.72
2023-02-18T00:53:31.454Z,9.71
2023-02-18T00:56:33.260Z,9.70
2023-02-18T00:59:34.778Z,9.67
2023-02-18T01:02:36.719Z,9.68
2023-02-18T01:05:39.735Z,9.65
2023-02-18T01:08:41.664Z,9.61
2023-02-18T01:11:43.262Z,9.60
2023-02-18T01:14:44.857Z,9.56
2023-02-18T01:17:46.419Z,9.40
2023-02-18T01:20:48.447Z,9.15
2023-02-18T01:23:50.197Z,8.87
2023-02-18T01:26:52.290Z,8.65
2023-02-18T01:29:53.987Z,8.45
2023-02-18T01:32:59.239Z,8.17
2023-02-18T01:36:00.933Z,7.93
2023-02-18T01:39:02.620Z,7.73
2023-02-18T01:42:04.328Z,7.68
2023-02-18T01:45:34.430Z,7.70
2023-02-18T01:49:01.024Z,7.99
2023-02-18T01:52:07.112Z,8.18
2023-02-18T01:55:08.818Z,8.30
2023-02-18T01:58:11.775Z,8.41
2023-02-18T02:01:13.485Z,8.48
2023-02-18T02:04:15.161Z,8.51
2023-02-18T02:07:18.644Z,8.52
2023-02-18T02:10:20.680Z,8.52
2023-02-18T02:13:50.150Z,8.50
2023-02-18T02:17:00.294Z,8.48
2023-02-18T02:20:30.492Z,8.47
2023-02-18T02:24:02.791Z,8.54
2023-02-18T02:27:21.792Z,8.52
2023-02-18T02:30:46.843Z,8.53
2023-02-18T02:34:16.019Z,8.46
2023-02-18T02:37:37.281Z,8.44
2023-02-18T02:40:47.436Z,8.44
2023-02-18T02:44:33.692Z,8.43
2023-02-18T02:47:59.724Z,8.40
2023-02-18T02:51:08.056Z,8.36
2023-02-18T02:54:17.436Z,8.32
2023-02-18T02:57:19.049Z,8.25
2023-02-18T03:00:22.569Z,8.26
2023-02-18T03:03:52.459Z,8.24
2023-02-18T03:07:03.110Z,8.24
2023-02-18T03:10:28.055Z,8.22
2023-02-18T03:14:18.389Z,8.18
2023-02-18T03:17:30.864Z,8.14
2023-02-18T03:20:36.347Z,8.11
2023-02-18T03:23:42.454Z,8.14
2023-02-18T03:26:50.187Z,8.18
2023-02-18T03:29:56.780Z,8.14
2023-02-18T03:33:01.519Z,8.15
2023-02-18T03:36:03.578Z,8.11
2023-02-18T03:39:08.794Z,8.11
2023-02-18T03:42:13.620Z,8.04
2023-02-18T03:45:15.202Z,7.94
2023-02-18T03:48:16.776Z,7.87
2023-02-18T03:51:18.383Z,7.85
2023-02-18T03:54:19.984Z,7.82
2023-02-18T03:57:22.203Z,7.80
2023-02-18T04:00:26.985Z,7.80
2023-02-18T04:03:28.462Z,7.74
2023-02-18T04:06:30.577Z,7.66
2023-02-18T04:09:32.136Z,7.56
2023-02-18T04:12:34.068Z,7.47
2023-02-18T04:15:35.705Z,7.39
2023-02-18T04:18:37.464Z,7.27
2023-02-18T04:21:38.906Z,7.10
2023-02-18T04:24:40.512Z,6.91
2023-02-18T04:27:42.082Z,6.74
2023-02-18T04:30:44.788Z,6.80
2023-02-18T04:33:46.421Z,6.86
2023-02-18T04:36:48.236Z,6.89
2023-02-18T04:39:49.776Z,6.96
2023-02-18T04:42:51.529Z,7.05
2023-02-18T04:45:53.455Z,7.12
2023-02-18T04:48:55.015Z,7.15
2023-02-18T04:51:56.790Z,7.18
2023-02-18T04:54:58.327Z,7.18
2023-02-18T04:58:00.096Z,7.15
2023-02-18T05:01:03.179Z,7.07
2023-02-18T05:04:04.830Z,6.94
2023-02-18T05:07:06.279Z,6.85
2023-02-18T05:10:09.804Z,6.90
2023-02-18T05:13:11.452Z,6.96
2023-02-18T05:16:13.092Z,7.02
2023-02-18T05:19:15.607Z,7.15
2023-02-18T05:22:17.333Z,7.08
2023-02-18T05:25:18.849Z,6.98
2023-02-18T05:28:20.478Z,6.86
2023-02-18T05:31:22.067Z,6.86
2023-02-18T05:34:23.705Z,6.88
2023-02-18T05:37:25.771Z,6.92
2023-02-18T05:40:27.397Z,6.98
2023-02-18T05:43:28.983Z,7.00
2023-02-18T05:46:30.531Z,7.04
2023-02-18T05:49:33.405Z,7.06
2023-02-18T05:52:35.147Z,7.00
2023-02-18T05:55:36.877Z,6.94
2023-02-18T05:58:38.351Z,6.88
2023-02-18T06:01:40.289Z,6.60
2023-02-18T06:04:41.939Z,6.42
2023-02-18T06:07:43.448Z,6.48
2023-02-18T06:10:45.099Z,6.49
2023-02-18T06:13:47.068Z,6.49
2023-02-18T06:16:48.826Z,6.49
2023-02-18T06:19:50.358Z,6.49
2023-02-18T06:22:51.840Z,6.43
2023-02-18T06:25:53.380Z,6.39
2023-02-18T06:28:54.867Z,6.32
2023-02-18T06:31:56.432Z,6.34
2023-02-18T06:34:58.631Z,6.43
2023-02-18T06:38:00.267Z,6.58
2023-02-18T06:41:01.937Z,6.79
2023-02-18T06:44:03.706Z,6.97
2023-02-18T06:47:05.353Z,7.09
2023-02-18T06:50:07.195Z,7.17
2023-02-18T06:53:09.285Z,7.18
2023-02-18T06:56:11.373Z,7.17
2023-02-18T06:59:13.258Z,7.16
2023-02-18T07:02:15.061Z,7.24
2023-02-18T07:05:16.992Z,7.27
2023-02-18T07:08:18.661Z,7.35
2023-02-18T07:11:20.127Z,7.41
2023-02-18T07:14:22.082Z,7.44
2023-02-18T07:17:23.708Z,7.52
2023-02-18T07:20:26.133Z,7.57
2023-02-18T07:23:27.916Z,7.63
2023-02-18T07:26:29.550Z,7.67
2023-02-18T07:29:31.149Z,7.65
2023-02-18T07:32:32.708Z,7.63
2023-02-18T07:35:34.482Z,7.62
2023-02-18T07:38:36.052Z,7.60
2023-02-18T07:41:37.576Z,7.62
2023-02-18T07:44:39.289Z,7.63
2023-02-18T07:47:40.920Z,7.58
2023-02-18T07:50:44.489Z,7.54
2023-02-18T07:53:46.026Z,7.55
2023-02-18T07:56:47.485Z,7.62
2023-02-18T07:59:49.084Z,7.63
2023-02-18T08:02:50.656Z,7.58
2023-02-18T08:05:52.829Z,7.55
2023-02-18T08:08:54.488Z,7.55
2023-02-18T08:11:56.458Z,7.53
2023-02-18T08:14:58.006Z,7.55
2023-02-18T08:17:59.488Z,7.65
2023-02-18T08:21:01.148Z,7.67
2023-02-18T08:24:02.976Z,7.65
2023-02-18T08:27:04.747Z,7.66
2023-02-18T08:30:07.241Z,7.72
2023-02-18T08:33:10.037Z,7.71
2023-02-18T08:36:11.619Z,7.74
2023-02-18T08:39:13.310Z,7.77
2023-02-18T08:42:15.306Z,7.77
2023-02-18T08:45:17.035Z,7.76
2023-02-18T08:48:20.512Z,7.76
2023-02-18T08:51:23.208Z,7.79
2023-02-18T08:54:25.001Z,7.85
2023-02-18T08:57:28.034Z,7.91
2023-02-18T09:00:29.646Z,7.96
2023-02-18T09:03:31.406Z,8.01
2023-02-18T09:06:37.383Z,8.03
2023-02-18T09:09:38.974Z,8.05
2023-02-18T09:12:40.448Z,8.05
2023-02-18T09:15:42.298Z,8.04
2023-02-18T09:18:45.168Z,8.03
2023-02-18T09:21:46.748Z,8.04
2023-02-18T09:24:48.436Z,8.06
2023-02-18T09:27:50.118Z,8.03
2023-02-18T09:30:51.747Z,8.06
2023-02-18T09:34:02.911Z,8.07
2023-02-18T09:37:04.751Z,8.05
2023-02-18T09:40:07.027Z,8.04
2023-02-18T09:43:19.417Z,8.04
2023-02-18T09:46:34.744Z,8.02
2023-02-18T09:49:39.419Z,8.02
2023-02-18T09:52:41.136Z,8.00
2023-02-18T09:55:43.612Z,7.99
2023-02-18T09:58:47.307Z,8.00
2023-02-18T10:01:50.796Z,8.01
2023-02-18T10:04:52.616Z,8.03
2023-02-18T10:07:58.780Z,8.00
2023-02-18T10:11:00.318Z,8.02
2023-02-18T10:14:01.905Z,8.04
2023-02-18T10:17:04.327Z,8.03
2023-02-18T10:20:08.453Z,8.02
2023-02-18T10:23:11.446Z,8.07
2023-02-18T10:26:16.786Z,8.17
2023-02-18T10:29:21.898Z,8.23
2023-02-18T10:32:27.514Z,8.25
2023-02-18T10:35:53.085Z,8.26
2023-02-18T10:39:10.560Z,8.19
2023-02-18T10:42:32.018Z,8.02
2023-02-18T10:45:42.706Z,7.93
2023-02-18T10:48:59.991Z,7.96
2023-02-18T10:52:03.824Z,7.97
2023-02-18T10:55:08.301Z,7.94
2023-02-18T10:58:25.339Z,8.02
2023-02-18T11:01:27.018Z,8.01
2023-02-18T11:04:37.161Z,8.05
2023-02-18T11:07:38.934Z,8.08
2023-02-18T11:10:42.834Z,8.12
2023-02-18T11:13:44.422Z,8.16
2023-02-18T11:16:47.028Z,8.22
2023-02-18T11:19:54.730Z,8.24
2023-02-18T11:23:19.693Z,8.16
2023-02-18T11:26:35.556Z,8.02
2023-02-18T11:29:37.386Z,7.86
2023-02-18T11:32:39.120Z,7.70
2023-02-18T11:35:52.323Z,7.59
2023-02-18T11:39:04.109Z,7.50
2023-02-18T11:42:06.491Z,7.44
2023-02-18T11:45:27.099Z,7.41
2023-02-18T11:48:28.887Z,7.42
2023-02-18T11:51:35.436Z,7.43
2023-02-18T11:54:37.313Z,7.42
2023-02-18T11:57:42.478Z,7.41
2023-02-18T12:00:45.369Z,7.43
2023-02-18T12:03:48.595Z,7.49
2023-02-18T12:07:01.507Z,7.58
2023-02-18T12:10:12.482Z,7.52
2023-02-18T12:13:34.214Z,7.43
2023-02-18T12:16:54.937Z,7.27
2023-02-18T12:20:18.378Z,7.15
2023-02-18T12:23:26.746Z,7.02
2023-02-18T12:26:53.078Z,6.91
2023-02-18T12:30:20.938Z,6.78
2023-02-18T12:33:25.312Z,6.76
2023-02-18T12:36:42.160Z,6.77
2023-02-18T12:39:52.953Z,6.76
2023-02-18T12:43:04.139Z,6.74
2023-02-18T12:46:22.486Z,6.70
2023-02-18T12:49:42.826Z,6.70
2023-02-18T12:53:22.966Z,6.68
2023-02-18T12:56:30.717Z,6.64
2023-02-18T13:00:03.876Z,6.63
2023-02-18T13:03:33.398Z,6.68
2023-02-18T13:07:00.245Z,6.76
2023-02-18T13:10:38.950Z,6.86
2023-02-18T13:13:53.231Z,6.92
2023-02-18T13:16:57.320Z,7.00
2023-02-18T13:20:09.955Z,7.07
2023-02-18T13:23:28.519Z,7.09
2023-02-18T13:26:31.855Z,7.04
2023-02-18T13:30:00.772Z,6.91
2023-02-18T13:33:11.673Z,6.75
2023-02-18T13:36:41.392Z,6.64
2023-02-18T13:39:55.458Z,6.56
2023-02-18T13:43:27.978Z,6.49
2023-02-18T13:46:29.729Z,6.40
2023-02-18T13:49:36.495Z,6.38
2023-02-18T13:52:38.074Z,6.38
2023-02-18T13:55:39.534Z,6.37
2023-02-18T13:58:42.971Z,6.32
2023-02-18T14:01:48.696Z,6.27
2023-02-18T14:05:16.659Z,6.22
2023-02-18T14:08:30.379Z,6.14
2023-02-18T14:11:40.594Z,6.05
2023-02-18T14:14:42.344Z,6.00
2023-02-18T14:18:07.969Z,5.96
2023-02-18T14:21:12.616Z,5.98
2023-02-18T14:24:44.454Z,5.91
2023-02-18T14:27:46.478Z,5.90
2023-02-18T14:30:48.241Z,5.89
2023-02-18T14:34:11.742Z,5.88
2023-02-18T14:37:38.170Z,5.88
2023-02-18T14:40:52.547Z,5.82
2023-02-18T14:44:16.728Z,5.79
2023-02-18T14:47:30.221Z,5.72
2023-02-18T14:50:35.447Z,5.62
2023-02-18T14:53:43.835Z,5.56
2023-02-18T14:56:57.832Z,5.51
2023-02-18T14:59:59.755Z,5.45
2023-02-18T15:03:02.492Z,5.38
2023-02-18T15:06:05.275Z,5.34
2023-02-18T15:09:18.406Z,5.32
2023-02-18T15:12:25.451Z,5.30
2023-02-18T15:15:27.320Z,5.27
2023-02-18T15:18:36.499Z,5.25
2023-02-18T15:21:42.303Z,5.21
2023-02-18T15:24:44.265Z,5.13
2023-02-18T15:27:45.855Z,5.07
2023-02-18T15:30:47.355Z,4.99
2023-02-18T15:33:49.086Z,4.90
2023-02-18T15:36:51.201Z,4.84
2023-02-18T15:39:52.716Z,4.78
2023-02-18T15:42:54.221Z,4.73
2023-02-18T15:45:57.864Z,4.67
2023-02-18T15:49:00.656Z,4.63
2023-02-18T15:52:02.970Z,4.58
2023-02-18T15:55:11.592Z,4.52
2023-02-18T15:58:16.511Z,4.48
2023-02-18T16:01:29.060Z,4.45
2023-02-18T16:04:33.840Z,4.43
2023-02-18T16:07:51.696Z,4.38
2023-02-18T16:11:02.958Z,4.35
2023-02-18T16:14:05.107Z,4.32
2023-02-18T16:17:12.626Z,4.29
2023-02-18T16:20:30.826Z,4.26
2023-02-18T16:23:56.583Z,4.23
2023-02-18T16:26:59.084Z,4.19
2023-02-18T16:30:06.783Z,4.17
2023-02-18T16:33:08.469Z,4.16
2023-02-18T16:36:13.853Z,4.15
2023-02-18T16:39:15.340Z,4.13
2023-02-18T16:42:17.170Z,4.12
2023-02-18T16:45:19.905Z,4.12
2023-02-18T16:48:26.826Z,4.09
2023-02-18T16:51:33.294Z,4.07
2023-02-18T16:54:34.884Z,4.08
2023-02-18T16:57:36.403Z,4.09
2023-02-18T17:00:38.329Z,4.09
2023-02-18T17:03:39.993Z,4.08
2023-02-18T17:06:42.866Z,4.08
2023-02-18T17:09:44.441Z,4.06
2023-02-18T17:12:45.949Z,4.06
2023-02-18T17:15:50.361Z,4.05
2023-02-18T17:18:52.273Z,4.03
2023-02-18T17:21:53.846Z,4.02
2023-02-18T17:24:55.555Z,4.05
2023-02-18T17:27:57.309Z,4.10
2023-02-18T17:30:59.041Z,4.12
2023-02-18T17:34:01.446Z,4.16
2023-02-18T17:37:03.046Z,4.18
2023-02-18T17:40:04.694Z,4.23
2023-02-18T17:43:06.656Z,4.29
2023-02-18T17:46:16.391Z,4.34
2023-02-18T17:49:18.685Z,4.40
2023-02-18T17:52:29.686Z,4.45
2023-02-18T17:55:33.043Z,4.49
2023-02-18T17:58:34.664Z,4.54
2023-02-18T18:01:36.441Z,4.59
2023-02-18T18:04:38.143Z,4.62
2023-02-18T18:07:39.634Z,4.82
2023-02-18T18:10:48.927Z,5.14
2023-02-18T18:13:52.228Z,5.55
2023-02-18T18:16:53.794Z,6.05
2023-02-18T18:19:55.404Z,6.50
2023-02-18T18:22:59.045Z,6.91
2023-02-18T18:26:00.787Z,7.15
2023-02-18T18:29:02.365Z,7.30
2023-02-18T18:32:04.165Z,7.39
2023-02-18T18:35:18.185Z,7.46
2023-02-18T18:38:21.436Z,7.50
2023-02-18T18:41:23.075Z,7.54
2023-02-18T18:44:24.585Z,7.51
2023-02-18T18:47:26.116Z,7.59
2023-02-18T18:50:27.760Z,7.67
2023-02-18T18:53:31.919Z,7.72
2023-02-18T18:56:33.428Z,7.76
2023-02-18T18:59:35.218Z,7.80
2023-02-18T19:02:37.043Z,7.83
2023-02-18T19:05:41.003Z,7.91
2023-02-18T19:08:43.049Z,7.98
2023-02-18T19:11:44.882Z,8.01
2023-02-18T19:14:46.398Z,8.06
2023-02-18T19:17:50.764Z,8.19
2023-02-18T19:20:52.311Z,8.25
2023-02-18T19:23:53.769Z,8.24
2023-02-18T19:26:55.333Z,8.28
2023-02-18T19:29:56.811Z,8.06
2023-02-18T19:33:00.403Z,7.97
2023-02-18T19:36:07.751Z,7.89
2023-02-18T19:39:09.362Z,7.88
2023-02-18T19:42:10.913Z,7.84
2023-02-18T19:45:13.280Z,7.87
2023-02-18T19:48:15.752Z,7.84
2023-02-18T19:51:17.404Z,7.87
2023-02-18T19:54:18.840Z,7.94
2023-02-18T19:57:20.638Z,7.96
2023-02-18T20:00:22.657Z,7.91
2023-02-18T20:03:24.452Z,7.92
2023-02-18T20:06:26.023Z,7.92
2023-02-18T20:09:27.471Z,7.93
2023-02-18T20:12:29.018Z,7.95
2023-02-18T20:15:30.510Z,7.95
2023-02-18T20:18:32.039Z,7.97
2023-02-18T20:21:33.552Z,7.92
2023-02-18T20:24:35.124Z,7.91
2023-02-18T20:27:37.511Z,7.92
2023-02-18T20:30:41.353Z,7.93
2023-02-18T20:33:43.149Z,7.84
2023-02-18T20:36:45.277Z,7.74
2023-02-18T20:39:46.891Z,7.64
2023-02-18T20:42:48.289Z,7.54
2023-02-18T20:45:49.845Z,7.47
2023-02-18T20:48:51.360Z,7.35
2023-02-18T20:51:53.068Z,7.24
2023-02-18T20:54:54.541Z,7.17
2023-02-18T20:57:56.125Z,7.15
2023-02-18T21:00:58.640Z,7.11
2023-02-18T21:04:00.158Z,7.08
2023-02-18T21:07:01.681Z,7.16
2023-02-18T21:10:03.189Z,7.24
2023-02-18T21:13:04.752Z,7.24
2023-02-18T21:16:06.744Z,7.21
2023-02-18T21:19:12.108Z,7.18
2023-02-18T21:22:13.764Z,7.16
2023-02-18T21:25:15.253Z,7.14
2023-02-18T21:28:16.959Z,7.11
2023-02-18T21:31:39.699Z,7.15
2023-02-18T21:34:41.334Z,7.15
2023-02-18T21:37:42.810Z,7.16
2023-02-18T21:40:45.049Z,7.16
2023-02-18T21:43:47.540Z,7.14
2023-02-18T21:46:49.185Z,7.12
2023-02-18T21:49:50.866Z,7.08
2023-02-18T21:52:52.419Z,7.14
2023-02-18T21:56:03.291Z,7.30
2023-02-18T21:59:05.344Z,7.37
2023-02-18T22:02:07.938Z,7.40
2023-02-18T22:05:09.633Z,7.39
2023-02-18T22:08:11.166Z,7.37
2023-02-18T22:11:13.865Z,7.33
2023-02-18T22:14:15.417Z,7.26
2023-02-18T22:17:17.153Z,7.18
2023-02-18T22:20:18.727Z,7.07
2023-02-18T22:23:20.177Z,7.01
2023-02-18T22:26:21.953Z,6.99
2023-02-18T22:29:23.511Z,7.00
2023-02-18T22:32:25.200Z,6.99
2023-02-18T22:35:26.757Z,6.98
2023-02-18T22:38:28.650Z,6.97
2023-02-18T22:41:31.560Z,6.95
2023-02-18T22:44:33.164Z,6.93
2023-02-18T22:47:34.643Z,6.93
2023-02-18T22:50:36.164Z,6.91
2023-02-18T22:53:38.180Z,6.89
2023-02-18T22:56:40.002Z,6.85
2023-02-18T22:59:41.550Z,6.86
2023-02-18T23:02:42.989Z,6.87
2023-02-18T23:05:44.556Z,6.86
2023-02-18T23:08:46.331Z,6.83
2023-02-18T23:11:52.039Z,6.81
2023-02-18T23:14:53.711Z,6.79
2023-02-18T23:17:55.201Z,6.76
2023-02-18T23:21:02.333Z,6.75
2023-02-18T23:24:04.907Z,6.75
2023-02-18T23:27:07.576Z,6.77
2023-02-18T23:30:10.211Z,6.75
2023-02-18T23:33:11.949Z,6.75
2023-02-18T23:36:14.596Z,6.73
2023-02-18T23:39:18.756Z,6.73
2023-02-18T23:42:20.448Z,6.72
2023-02-18T23:45:22.229Z,6.68
2023-02-18T23:48:23.846Z,6.64
2023-02-18T23:51:25.436Z,6.59
2023-02-18T23:54:27.038Z,6.52
2023-02-18T23:57:31.762Z,6.46
